Morehead City, North Carolina
Current Conditions -  °F | °C
As of 11:58 AM on Friday 24 Oct 2014 (Local Time) from KMRH Reporting Station
Clear Clear  
Wind Chill: 65°   Ceiling: Unl
Heat Index: 65°   Visibility: 10mi
Dew Point: 46°   Wind: 8mph
Humidity: 50%   Direction: 350°N
Pressure: 30.03"   Gusts: NA
Location:  34.72°N, 76.72°W
Report Text: KMRH 241558Z AUTO 35007KT 10SM CLR 18/08 A3003 RMK AO2 SLP169 T01830078 TSNO
Loading
Personal Weather Stations






























Interactive Weather Map
Tropical Storm Tracking
New forecast layout! Learn more

10-Day Weather Forecast

Advertisements
Track Severe Weather on mobile